createdAt,value
2023-03-25T00:04:56.136Z,2.35
2023-03-25T00:10:00.358Z,2.13
2023-03-25T00:15:03.019Z,2.17
2023-03-25T00:20:11.098Z,2.13
2023-03-25T00:25:19.080Z,2.67
2023-03-25T00:30:22.029Z,2.63
2023-03-25T00:35:26.108Z,2.27
2023-03-25T00:40:34.760Z,2.08
2023-03-25T00:45:37.440Z,2.17
2023-03-25T00:50:41.953Z,2.87
2023-03-25T00:55:46.023Z,2.65
2023-03-25T01:00:49.640Z,2.53
2023-03-25T01:05:54.680Z,2.00
2023-03-25T01:10:59.258Z,2.15
2023-03-25T01:16:01.895Z,2.50
2023-03-25T01:21:04.968Z,2.40
2023-03-25T01:26:09.175Z,2.72
2023-03-25T01:31:15.069Z,3.97
2023-03-25T01:36:17.768Z,2.53
2023-03-25T01:41:21.656Z,2.63
2023-03-25T01:46:24.280Z,3.10
2023-03-25T01:51:30.385Z,3.40
2023-03-25T01:56:37.298Z,2.85
2023-03-25T02:01:40.009Z,2.50
2023-03-25T02:06:45.173Z,3.10
2023-03-25T02:11:49.262Z,2.80
2023-03-25T02:17:04.867Z,3.83
2023-03-25T02:22:58.744Z,2.53
2023-03-25T02:28:11.688Z,2.88
2023-03-25T02:33:48.314Z,2.80
2023-03-25T02:38:54.878Z,2.60
2023-03-25T02:44:03.359Z,2.58
2023-03-25T02:49:12.740Z,3.05
2023-03-25T02:54:18.079Z,3.38
2023-03-25T02:59:22.154Z,2.72
2023-03-25T03:04:25.119Z,3.17
2023-03-25T03:09:40.828Z,2.75
2023-03-25T03:14:57.525Z,3.38
2023-03-25T03:20:05.211Z,3.88
2023-03-25T03:25:19.371Z,3.38
2023-03-25T03:30:29.915Z,4.07
2023-03-25T03:35:38.445Z,4.63
2023-03-25T03:40:46.219Z,4.30
2023-03-25T03:45:52.827Z,3.95
2023-03-25T03:51:00.669Z,3.70
2023-03-25T03:56:09.151Z,4.45
2023-03-25T04:01:14.958Z,3.90
2023-03-25T04:06:24.539Z,3.75
2023-03-25T04:11:34.193Z,3.92
2023-03-25T04:16:37.599Z,2.97
2023-03-25T04:21:41.570Z,3.35
2023-03-25T04:26:45.471Z,3.90
2023-03-25T04:31:49.716Z,3.92
2023-03-25T04:36:52.610Z,4.68
2023-03-25T04:41:57.283Z,5.43
2023-03-25T04:47:00.967Z,5.20
2023-03-25T04:52:04.370Z,4.32
2023-03-25T04:57:09.678Z,4.13
2023-03-25T05:02:13.594Z,4.18
2023-03-25T05:07:18.801Z,3.92
2023-03-25T05:12:22.755Z,4.18
2023-03-25T05:17:26.284Z,3.60
2023-03-25T05:27:34.012Z,4.13
2023-03-25T05:32:36.989Z,4.25
2023-03-25T05:37:39.594Z,4.60
2023-03-25T05:42:47.111Z,5.10
2023-03-25T05:47:49.843Z,3.72
2023-03-25T05:52:53.706Z,3.50
2023-03-25T05:57:58.822Z,4.25
2023-03-25T06:03:02.359Z,2.90
2023-03-25T06:08:05.125Z,3.70
2023-03-25T06:13:09.071Z,3.87
2023-03-25T06:18:11.677Z,3.10
2023-03-25T06:23:14.250Z,3.23
2023-03-25T06:28:19.378Z,2.67
2023-03-25T06:33:43.122Z,2.55
2023-03-25T06:38:44.704Z,1.98
2023-03-25T06:43:49.640Z,2.17
2023-03-25T06:48:52.249Z,2.42
2023-03-25T06:53:54.873Z,3.57
2023-03-25T06:58:58.787Z,4.80
2023-03-25T07:04:01.415Z,3.05
2023-03-25T07:09:04.282Z,3.70
2023-03-25T07:14:08.280Z,3.20
2023-03-25T07:19:10.896Z,3.58
2023-03-25T07:24:13.483Z,3.73
2023-03-25T07:29:17.445Z,5.60
2023-03-25T07:34:20.060Z,4.53
2023-03-25T07:39:25.197Z,4.77
2023-03-25T07:44:29.194Z,5.50
2023-03-25T07:49:31.933Z,5.47
2023-03-25T07:54:34.586Z,4.83
2023-03-25T07:59:38.541Z,5.50
2023-03-25T08:04:41.354Z,4.60
2023-03-25T08:09:43.977Z,5.68
2023-03-25T08:14:47.973Z,5.03
2023-03-25T08:19:50.797Z,5.13
2023-03-25T08:24:53.371Z,5.13
2023-03-25T08:29:59.254Z,5.07
2023-03-25T08:35:05.205Z,5.22
2023-03-25T08:40:09.763Z,5.95
2023-03-25T08:45:15.282Z,4.70
2023-03-25T08:50:19.024Z,5.07
2023-03-25T08:55:23.367Z,5.15
2023-03-25T09:00:27.385Z,4.28
2023-03-25T09:05:29.965Z,4.43
2023-03-25T09:10:32.687Z,4.37
2023-03-25T09:15:37.038Z,4.00
2023-03-25T09:20:39.781Z,5.15
2023-03-25T09:25:42.968Z,4.70
2023-03-25T09:30:46.952Z,4.00
2023-03-25T09:35:49.949Z,4.13
2023-03-25T09:40:52.842Z,4.07
2023-03-25T09:45:57.714Z,4.10
2023-03-25T09:51:03.912Z,3.90
2023-03-25T09:56:15.102Z,4.20
2023-03-25T10:01:34.767Z,3.20
2023-03-25T10:06:45.666Z,2.78
2023-03-25T10:11:55.258Z,2.10
2023-03-25T10:17:09.391Z,2.28
2023-03-25T10:22:18.225Z,2.58
2023-03-25T10:27:24.193Z,1.83
2023-03-25T10:32:35.823Z,1.27
2023-03-25T10:37:42.773Z,2.20
2023-03-25T10:42:57.105Z,2.15
2023-03-25T10:48:08.517Z,2.15
2023-03-25T10:53:22.001Z,2.17
2023-03-25T11:03:34.445Z,2.40
2023-03-25T11:08:37.212Z,2.55
2023-03-25T11:13:41.281Z,2.30
2023-03-25T11:18:45.686Z,2.28
2023-03-25T11:23:50.527Z,3.65
2023-03-25T11:28:56.079Z,3.97
2023-03-25T11:34:10.872Z,2.63
2023-03-25T11:39:19.277Z,3.10
2023-03-25T11:44:24.950Z,3.58
2023-03-25T11:49:35.391Z,4.43
2023-03-25T11:54:38.858Z,4.25
2023-03-25T11:59:45.993Z,3.03
2023-03-25T12:05:02.951Z,2.58
2023-03-25T12:10:07.983Z,3.42
2023-03-25T12:15:33.392Z,3.42
2023-03-25T12:20:49.987Z,2.33
2023-03-25T12:25:59.645Z,2.88
2023-03-25T12:31:11.314Z,3.70
2023-03-25T12:36:30.682Z,2.95
2023-03-25T12:41:40.926Z,3.47
2023-03-25T12:47:02.153Z,3.10
2023-03-25T12:52:21.818Z,3.17
2023-03-25T12:57:36.828Z,3.38
2023-03-25T13:03:12.540Z,2.20
2023-03-25T13:08:20.397Z,3.35
2023-03-25T13:13:25.820Z,2.65
2023-03-25T13:18:33.029Z,3.88
2023-03-25T13:23:40.118Z,2.53
2023-03-25T13:28:46.855Z,4.05
2023-03-25T13:33:54.883Z,2.92
2023-03-25T13:39:02.656Z,3.38
2023-03-25T13:44:08.862Z,2.92
2023-03-25T13:49:17.843Z,2.53
2023-03-25T13:54:27.745Z,3.65
2023-03-25T14:00:05.843Z,3.53
2023-03-25T14:05:39.428Z,4.03
2023-03-25T14:10:54.646Z,2.92
2023-03-25T14:16:02.792Z,3.67
2023-03-25T14:21:15.985Z,2.80
2023-03-25T14:26:20.328Z,3.10
2023-03-25T14:31:31.754Z,2.60
2023-03-25T14:37:09.652Z,2.17
2023-03-25T14:42:28.787Z,3.15
2023-03-25T14:47:35.389Z,2.03
2023-03-25T14:52:41.544Z,2.78
2023-03-25T14:57:46.804Z,2.42
2023-03-25T15:02:53.601Z,2.08
2023-03-25T15:08:00.348Z,1.20
2023-03-25T15:13:07.423Z,1.00
2023-03-25T15:18:10.617Z,1.38
2023-03-25T15:23:33.267Z,1.60
2023-03-25T15:29:02.519Z,1.58
2023-03-25T15:34:25.366Z,2.05
2023-03-25T15:39:42.654Z,3.20
2023-03-25T15:45:01.862Z,2.22
2023-03-25T15:50:34.125Z,3.45
2023-03-25T15:55:40.342Z,4.60
2023-03-25T16:00:48.533Z,1.33
2023-03-25T16:05:55.693Z,1.65
2023-03-25T16:10:58.301Z,1.48
2023-03-25T16:16:02.606Z,1.10
2023-03-25T16:21:05.686Z,1.08
2023-03-25T16:26:08.378Z,0.80
2023-03-25T16:31:34.490Z,1.20
2023-03-25T16:36:37.473Z,0.95
2023-03-25T16:41:44.415Z,0.70
2023-03-25T16:46:48.968Z,0.93
2023-03-25T16:51:52.506Z,0.93
2023-03-25T16:56:56.924Z,0.80
2023-03-25T17:02:02.425Z,1.10
2023-03-25T17:07:12.475Z,1.80
2023-03-25T17:12:19.254Z,2.15
2023-03-25T17:17:35.934Z,2.08
2023-03-25T17:22:40.646Z,1.23
2023-03-25T17:27:43.703Z,1.10
2023-03-25T17:32:49.051Z,1.08
2023-03-25T17:37:51.999Z,1.00
2023-03-25T17:42:55.347Z,0.93
2023-03-25T17:47:59.343Z,1.40
2023-03-25T17:53:01.974Z,1.25
2023-03-25T17:58:04.957Z,1.10
2023-03-25T18:03:13.441Z,1.10
2023-03-25T18:08:16.560Z,2.15
2023-03-25T18:13:21.599Z,1.83
2023-03-25T18:18:27.446Z,2.25
2023-03-25T18:23:31.412Z,2.92
2023-03-25T18:28:35.901Z,2.35
2023-03-25T18:33:39.870Z,2.28
2023-03-25T18:38:43.378Z,1.85
2023-03-25T18:48:50.016Z,3.67
2023-03-25T18:53:52.571Z,3.75
2023-03-25T18:58:55.129Z,4.07
2023-03-25T19:04:02.507Z,4.40
2023-03-25T19:09:05.693Z,5.45
2023-03-25T19:14:08.330Z,4.70
2023-03-25T19:19:13.425Z,4.87
2023-03-25T19:24:16.088Z,7.32
2023-03-25T19:29:18.714Z,5.67
2023-03-25T19:34:23.071Z,3.47
2023-03-25T19:39:25.868Z,4.32
2023-03-25T19:44:29.484Z,4.90
2023-03-25T19:54:42.991Z,5.68
2023-03-25T19:59:45.621Z,4.27
2023-03-25T20:04:49.531Z,4.77
2023-03-25T20:09:53.292Z,4.38
2023-03-25T20:14:55.870Z,4.43
2023-03-25T20:20:00.041Z,4.27
2023-03-25T20:25:03.365Z,4.57
2023-03-25T20:30:08.228Z,10.23
2023-03-25T20:35:14.042Z,13.23
2023-03-25T20:40:19.063Z,7.43
2023-03-25T20:45:22.403Z,3.33
2023-03-25T20:50:27.165Z,5.57
2023-03-25T20:55:29.739Z,3.65
2023-03-25T21:00:32.436Z,3.00
2023-03-25T21:05:40.557Z,3.67
2023-03-25T21:10:47.573Z,3.88
2023-03-25T21:15:54.331Z,2.88
2023-03-25T21:21:03.190Z,3.70
2023-03-25T21:26:09.265Z,4.18
2023-03-25T21:31:16.911Z,3.63
2023-03-25T21:36:22.545Z,6.10
2023-03-25T21:41:27.044Z,3.85
2023-03-25T21:46:29.655Z,7.47
2023-03-25T21:51:36.067Z,3.97
2023-03-25T21:56:42.118Z,3.78
2023-03-25T22:01:45.496Z,4.13
2023-03-25T22:06:52.157Z,5.20
2023-03-25T22:11:55.636Z,6.50
2023-03-25T22:16:58.415Z,6.70
2023-03-25T22:22:02.992Z,9.43
2023-03-25T22:27:05.570Z,7.43
2023-03-25T22:32:08.154Z,5.87
2023-03-25T22:37:12.095Z,8.67
2023-03-25T22:42:14.690Z,7.68
2023-03-25T22:47:17.314Z,11.07
2023-03-25T22:52:21.327Z,9.30
2023-03-25T22:57:23.921Z,9.07
2023-03-25T23:02:26.731Z,7.90
2023-03-25T23:07:30.728Z,8.18
2023-03-25T23:12:33.294Z,8.75
2023-03-25T23:17:36.346Z,8.35
2023-03-25T23:22:41.515Z,10.07
2023-03-25T23:27:46.079Z,9.98
2023-03-25T23:32:48.759Z,10.77
2023-03-25T23:37:53.462Z,10.93
2023-03-25T23:42:56.051Z,8.55
2023-03-25T23:48:06.440Z,7.60
2023-03-25T23:53:10.376Z,8.10
2023-03-25T23:58:15.411Z,8.38
